Time;durP1;ratioP1;P1;durP2;ratioP2;P2;SDS_P1;SDS_P2;PMS_P1;PMS_P2;Temp;Humidity;BMP_temperature;BMP_pressure;BME280_temperature;BME280_humidity;BME280_pressure;Samples;Min_cycle;Max_cycle;Signal;HPM_P1;HPM_P2
2023/04/21 00:02:27;;;;;;;6.45;4.32;;;18.50;73.10;;;;;;5058096;28;20228;-65
2023/04/21 00:05:15;;;;;;;7.13;4.65;;;18.50;73.10;;;;;;5058470;28;20224;-65
2023/04/21 00:08:03;;;;;;;8.10;4.25;;;18.60;73.00;;;;;;5059669;28;20207;-64
2023/04/21 00:10:52;;;;;;;13.98;3.92;;;18.50;72.90;;;;;;5057224;28;20280;-64
2023/04/21 00:13:41;;;;;;;4.78;3.92;;;18.60;72.90;;;;;;5058092;28;20659;-64
2023/04/21 00:16:29;;;;;;;10.77;4.75;;;18.70;72.80;;;;;;5058383;28;20228;-65
2023/04/21 00:19:17;;;;;;;12.43;4.43;;;18.60;72.70;;;;;;5057150;28;20205;-64
2023/04/21 00:22:10;;;;;;;9.82;5.18;;;18.60;72.50;;;;;;5057794;28;20218;-64
2023/04/21 00:24:58;;;;;;;17.67;4.00;;;18.60;72.60;;;;;;5058381;28;20705;-64
2023/04/21 00:27:48;;;;;;;9.38;4.35;;;18.60;72.60;;;;;;5058395;28;20243;-64
2023/04/21 00:30:36;;;;;;;6.45;3.88;;;18.60;72.60;;;;;;5058998;28;20202;-65
2023/04/21 00:33:24;;;;;;;6.18;4.32;;;18.50;72.40;;;;;;5058860;28;20705;-64
2023/04/21 00:36:12;;;;;;;10.65;5.15;;;18.40;72.60;;;;;;5058153;28;20230;-65
2023/04/21 00:39:00;;;;;;;7.72;4.47;;;18.40;72.90;;;;;;5058337;28;20233;-64
2023/04/21 00:41:48;;;;;;;4.28;3.75;;;18.20;80.10;;;;;;5058358;28;20205;-65
2023/04/21 00:44:38;;;;;;;6.15;4.60;;;18.20;72.70;;;;;;5058347;28;20678;-64
2023/04/21 00:47:26;;;;;;;5.85;4.72;;;18.20;72.60;;;;;;5056973;28;20280;-65
2023/04/21 00:50:15;;;;;;;7.18;4.90;;;18.10;72.50;;;;;;5059167;28;20211;-64
2023/04/21 00:53:03;;;;;;;9.82;4.80;;;18.10;72.80;;;;;;5058746;28;20267;-64
2023/04/21 00:55:51;;;;;;;5.40;4.32;;;18.00;72.90;;;;;;5055316;28;20282;-64
2023/04/21 00:58:42;;;;;;;8.23;4.85;;;18.00;72.90;;;;;;5054690;28;20210;-64
2023/04/21 01:01:33;;;;;;;9.52;5.18;;;17.90;73.30;;;;;;5055044;28;20557;-65
2023/04/21 01:04:21;;;;;;;7.40;4.75;;;17.90;72.60;;;;;;5054321;28;20209;-65
2023/04/21 01:07:09;;;;;;;8.40;5.20;;;18.00;73.20;;;;;;5054899;28;20231;-65
2023/04/21 01:09:58;;;;;;;5.70;4.55;;;18.10;73.00;;;;;;5055305;28;20583;-64
2023/04/21 01:12:47;;;;;;;6.20;4.68;;;18.20;72.70;;;;;;5054623;28;20725;-64
2023/04/21 01:15:35;;;;;;;5.45;4.32;;;18.20;72.40;;;;;;5054290;28;20235;-64
2023/04/21 01:18:25;;;;;;;8.77;4.57;;;18.30;72.30;;;;;;5054907;28;20211;-64
2023/04/21 01:21:13;;;;;;;6.47;5.20;;;18.40;72.10;;;;;;5054648;28;20269;-65
2023/04/21 01:26:43;;;;;;;7.72;5.40;;;18.20;75.30;;;;;;5110273;27;20544;-64
2023/04/21 01:29:33;;;;;;;10.55;6.38;;;18.50;71.60;;;;;;5128601;28;20191;-64
2023/04/21 01:32:24;;;;;;;9.80;5.38;;;18.50;71.60;;;;;;5153750;27;20240;-64
2023/04/21 01:35:13;;;;;;;8.60;6.43;;;18.50;71.60;;;;;;5170183;27;20219;-64
2023/04/21 01:38:01;;;;;;;8.35;5.95;;;18.50;71.60;;;;;;5164838;27;20225;-64
2023/04/21 01:40:51;;;;;;;6.00;5.30;;;18.50;71.60;;;;;;5155005;27;20194;-64
2023/04/21 01:43:40;;;;;;;8.75;6.18;;;18.50;70.90;;;;;;5170303;27;20299;-64
2023/04/21 01:46:28;;;;;;;4.95;4.28;;;18.40;71.40;;;;;;5169509;27;20575;-64
2023/04/21 01:49:16;;;;;;;13.00;6.55;;;18.50;71.60;;;;;;5170926;27;20189;-64
2023/04/21 01:52:05;;;;;;;8.10;5.78;;;18.40;71.60;;;;;;5170319;27;20217;-64
2023/04/21 01:54:53;;;;;;;5.72;5.10;;;18.30;71.50;;;;;;5170655;27;20292;-64
2023/04/21 01:57:41;;;;;;;5.88;5.15;;;18.30;71.60;;;;;;5169308;27;20193;-65
2023/04/21 02:00:30;;;;;;;8.23;6.72;;;18.20;71.60;;;;;;5170457;27;20200;-64
2023/04/21 02:03:18;;;;;;;9.45;6.88;;;18.20;71.80;;;;;;5169839;27;20277;-65
2023/04/21 02:06:07;;;;;;;6.88;4.82;;;18.20;71.90;;;;;;5169971;27;20697;-64
2023/04/21 02:08:55;;;;;;;9.25;5.80;;;18.10;71.70;;;;;;5170424;27;20198;-64
2023/04/21 02:11:43;;;;;;;7.18;5.82;;;18.00;71.70;;;;;;5169994;27;20325;-64
2023/04/21 02:14:31;;;;;;;7.07;5.10;;;17.90;71.20;;;;;;5169566;27;20276;-64
2023/04/21 02:17:20;;;;;;;7.13;6.03;;;17.90;71.80;;;;;;5170447;27;20738;-64
2023/04/21 02:20:11;;;;;;;9.13;7.18;;;17.80;71.90;;;;;;5169590;27;20189;-65
2023/04/21 02:22:59;;;;;;;7.55;5.50;;;17.80;72.10;;;;;;5170528;27;20639;-65
2023/04/21 02:25:47;;;;;;;9.05;7.07;;;17.80;72.10;;;;;;5169549;27;20198;-64
2023/04/21 02:28:35;;;;;;;8.18;6.60;;;17.80;72.10;;;;;;5170146;27;20276;-64
2023/04/21 02:31:23;;;;;;;7.32;6.18;;;17.80;71.90;;;;;;5169421;27;20200;-65
2023/04/21 02:34:12;;;;;;;6.93;6.22;;;17.90;71.10;;;;;;5169725;27;20201;-65
2023/04/21 02:37:01;;;;;;;6.93;6.05;;;18.00;71.40;;;;;;5160876;27;20224;-64
2023/04/21 02:39:49;;;;;;;7.38;6.68;;;18.10;71.10;;;;;;5155132;27;20198;-64
2023/04/21 02:42:37;;;;;;;10.65;6.75;;;18.10;70.90;;;;;;5155856;27;20521;-64
2023/04/21 02:45:25;;;;;;;11.02;6.57;;;18.20;70.70;;;;;;5155580;27;20615;-64
2023/04/21 02:48:13;;;;;;;9.65;6.43;;;18.20;70.50;;;;;;5155649;27;20208;-64
2023/04/21 02:51:03;;;;;;;7.82;6.57;;;18.20;70.30;;;;;;5155130;27;20197;-64
2023/04/21 02:53:51;;;;;;;9.00;6.95;;;18.20;70.20;;;;;;5155034;27;20708;-64
2023/04/21 02:56:39;;;;;;;9.68;6.57;;;18.30;70.10;;;;;;5155517;27;20250;-63
2023/04/21 02:59:27;;;;;;;10.18;7.13;;;18.20;69.90;;;;;;5154890;27;20578;-63
2023/04/21 03:02:15;;;;;;;9.55;6.63;;;18.30;70.00;;;;;;5155630;27;20214;-62
2023/04/21 03:05:04;;;;;;;7.82;6.43;;;18.20;69.90;;;;;;5155073;27;20416;-63
2023/04/21 03:07:53;;;;;;;9.05;7.47;;;18.20;69.70;;;;;;5155086;27;20198;-63
2023/04/21 03:10:41;;;;;;;9.27;7.95;;;18.20;69.80;;;;;;5155259;27;20550;-63
2023/04/21 03:13:29;;;;;;;9.38;7.55;;;18.10;69.70;;;;;;5153560;27;20659;-63
2023/04/21 03:16:18;;;;;;;10.27;7.80;;;18.10;69.80;;;;;;5155004;27;20585;-63
2023/04/21 03:19:06;;;;;;;10.15;8.15;;;18.00;69.70;;;;;;5154536;27;20682;-64
2023/04/21 03:21:54;;;;;;;8.18;7.32;;;18.00;82.90;;;;;;5154660;27;20634;-64
2023/04/21 03:24:44;;;;;;;7.05;6.35;;;17.90;69.70;;;;;;5154396;27;20206;-64
2023/04/21 03:27:32;;;;;;;12.43;7.40;;;17.80;69.90;;;;;;5155601;27;20242;-63
2023/04/21 03:30:20;;;;;;;9.27;7.22;;;17.80;70.10;;;;;;5154866;27;20198;-63
2023/04/21 03:33:08;;;;;;;8.30;6.28;;;17.70;70.20;;;;;;5154597;27;20301;-63
2023/04/21 03:35:56;;;;;;;12.90;7.55;;;17.60;70.30;;;;;;5154752;27;20214;-63
2023/04/21 03:38:44;;;;;;;9.30;6.45;;;17.60;70.40;;;;;;5154332;27;20205;-63
2023/04/21 03:41:34;;;;;;;9.90;7.65;;;17.50;70.50;;;;;;5154572;27;20280;-63
2023/04/21 03:44:25;;;;;;;8.95;6.93;;;17.50;70.60;;;;;;5154047;27;20278;-63
2023/04/21 03:47:13;;;;;;;10.15;7.68;;;17.50;70.80;;;;;;5153806;27;20217;-63
2023/04/21 03:50:03;;;;;;;10.48;7.80;;;17.50;70.80;;;;;;5153575;27;20671;-63
2023/04/21 03:52:51;;;;;;;16.38;7.72;;;17.40;70.70;;;;;;5153214;27;20848;-63
2023/04/21 03:55:39;;;;;;;9.13;7.82;;;17.40;70.70;;;;;;5154407;27;20921;-63
2023/04/21 03:58:28;;;;;;;9.73;7.90;;;17.40;70.70;;;;;;5153230;27;20225;-63
2023/04/21 04:01:16;;;;;;;9.20;7.50;;;17.30;70.60;;;;;;5154488;27;20202;-63
2023/04/21 04:04:05;;;;;;;15.80;7.85;;;17.40;70.00;;;;;;5118010;22;20224;-63
2023/04/21 04:06:53;;;;;;;10.45;7.60;;;17.40;70.40;;;;;;5072343;28;20659;-63
2023/04/21 04:09:41;;;;;;;12.40;8.10;;;17.50;70.50;;;;;;5071628;28;20246;-62
2023/04/21 04:12:29;;;;;;;7.57;6.78;;;17.60;83.50;;;;;;5072411;28;20302;-63
2023/04/21 04:15:19;;;;;;;9.73;7.07;;;17.50;70.20;;;;;;5091871;28;20196;-63
2023/04/21 04:18:07;;;;;;;15.40;8.10;;;17.60;70.30;;;;;;5091702;28;20292;-63
2023/04/21 04:20:55;;;;;;;9.23;7.80;;;17.50;70.10;;;;;;5091174;28;20298;-63
2023/04/21 04:23:44;;;;;;;14.85;8.88;;;17.50;69.50;;;;;;5090067;28;20234;-63
2023/04/21 04:26:34;;;;;;;12.18;8.93;;;17.50;70.00;;;;;;5092481;28;20584;-63
2023/04/21 04:29:22;;;;;;;9.88;7.97;;;17.50;70.00;;;;;;5091545;28;20196;-62
2023/04/21 04:32:12;;;;;;;11.00;9.10;;;17.40;69.90;;;;;;5091666;28;20200;-63
2023/04/21 04:35:01;;;;;;;13.32;9.52;;;17.40;70.00;;;;;;5091579;28;20204;-62
2023/04/21 04:37:49;;;;;;;9.13;7.13;;;17.30;70.00;;;;;;5085472;28;20215;-63
2023/04/21 04:40:37;;;;;;;10.93;8.57;;;17.30;70.20;;;;;;5090885;28;20196;-63
2023/04/21 04:43:25;;;;;;;9.77;7.88;;;17.30;70.00;;;;;;5090890;28;20303;-63
2023/04/21 04:46:13;;;;;;;11.20;8.30;;;17.30;70.60;;;;;;5091008;28;20203;-63
2023/04/21 04:49:03;;;;;;;11.00;7.88;;;17.30;70.50;;;;;;5090444;28;20277;-63
2023/04/21 04:51:51;;;;;;;9.73;7.63;;;17.20;70.40;;;;;;5089954;28;20317;-64
2023/04/21 04:54:39;;;;;;;9.85;8.75;;;17.20;69.90;;;;;;5091039;28;20230;-63
2023/04/21 04:57:27;;;;;;;13.05;9.88;;;17.10;70.50;;;;;;5090792;28;20208;-64
2023/04/21 05:00:16;;;;;;;9.45;8.35;;;17.10;70.50;;;;;;5091385;28;20691;-62
2023/04/21 05:03:04;;;;;;;12.05;7.30;;;17.20;70.00;;;;;;5091541;28;20228;-63
2023/04/21 05:05:55;;;;;;;8.65;7.82;;;17.20;70.60;;;;;;5085706;28;20579;-63
2023/04/21 05:08:43;;;;;;;7.63;6.88;;;17.20;70.40;;;;;;5091072;28;20322;-63
2023/04/21 05:11:31;;;;;;;8.65;7.75;;;17.30;70.10;;;;;;5091404;28;20684;-63
2023/04/21 05:14:19;;;;;;;11.75;8.25;;;17.50;69.30;;;;;;5089729;28;20223;-63
2023/04/21 05:17:07;;;;;;;9.07;7.50;;;17.50;69.70;;;;;;5091219;28;20691;-63
2023/04/21 05:19:55;;;;;;;8.73;7.57;;;17.60;69.60;;;;;;5090199;28;20203;-63
2023/04/21 05:22:45;;;;;;;9.25;7.88;;;17.70;68.90;;;;;;5083852;28;20603;-63
2023/04/21 05:25:33;;;;;;;13.43;8.32;;;17.70;69.50;;;;;;5091484;28;20206;-63
2023/04/21 05:28:21;;;;;;;11.23;7.82;;;17.70;69.40;;;;;;5090930;28;20578;-63
2023/04/21 05:31:09;;;;;;;8.68;7.60;;;17.80;69.30;;;;;;5091351;28;20199;-63
2023/04/21 05:33:57;;;;;;;12.10;7.85;;;17.80;68.60;;;;;;5090037;28;20769;-63
2023/04/21 05:36:47;;;;;;;10.43;7.78;;;17.80;69.30;;;;;;5090670;28;20212;-62
2023/04/21 05:39:37;;;;;;;9.48;8.25;;;17.70;69.00;;;;;;5082402;28;20208;-63
2023/04/21 05:42:25;;;;;;;10.65;9.05;;;18.00;75.60;;;;;;5077012;28;20196;-63
2023/04/21 05:45:13;;;;;;;13.43;9.23;;;17.70;69.10;;;;;;5080444;28;20280;-63
2023/04/21 05:48:01;;;;;;;11.15;9.07;;;17.70;68.80;;;;;;5088905;28;20210;-63
2023/04/21 05:50:50;;;;;;;13.05;9.93;;;17.70;69.00;;;;;;5078499;28;20352;-63
2023/04/21 05:53:38;;;;;;;13.85;8.82;;;17.60;68.30;;;;;;5088784;28;20226;-63
2023/04/21 05:56:27;;;;;;;10.30;8.10;;;17.60;69.10;;;;;;5090993;28;20695;-63
2023/04/21 05:59:15;;;;;;;11.27;9.48;;;17.60;69.00;;;;;;5089435;28;20192;-63
2023/04/21 06:02:03;;;;;;;10.20;7.90;;;17.60;69.20;;;;;;5083405;28;20203;-63
2023/04/21 06:04:52;;;;;;;11.77;7.43;;;17.50;69.50;;;;;;5069906;28;20579;-63
2023/04/21 06:07:40;;;;;;;10.40;7.28;;;17.60;69.70;;;;;;5081879;28;20192;-63
2023/04/21 06:10:29;;;;;;;8.63;7.82;;;17.50;69.80;;;;;;5074416;28;20747;-63
2023/04/21 06:13:19;;;;;;;7.65;6.20;;;17.50;69.20;;;;;;5071168;28;20248;-63
2023/04/21 06:16:07;;;;;;;8.95;8.05;;;17.50;69.90;;;;;;5073269;28;20262;-63
2023/04/21 06:18:57;;;;;;;8.95;7.50;;;17.50;69.80;;;;;;5073000;28;20224;-62
2023/04/21 06:21:45;;;;;;;11.23;8.65;;;17.50;69.60;;;;;;5089848;28;20282;-62
2023/04/21 06:24:33;;;;;;;11.80;8.18;;;17.60;69.00;;;;;;5093131;28;20651;-63
2023/04/21 06:27:21;;;;;;;12.55;8.10;;;17.70;70.10;;;;;;5093180;28;20192;-63
2023/04/21 06:30:11;;;;;;;10.15;8.40;;;17.90;69.20;;;;;;5092928;28;20785;-63
2023/04/21 06:32:59;;;;;;;8.07;6.80;;;17.90;68.90;;;;;;5077536;28;20239;-62
2023/04/21 06:35:48;;;;;;;9.07;7.95;;;18.00;68.50;;;;;;5072797;28;20266;-63
2023/04/21 06:38:36;;;;;;;7.97;7.18;;;18.10;68.40;;;;;;5073887;28;20221;-63
2023/04/21 06:41:24;;;;;;;9.43;8.52;;;18.20;68.40;;;;;;5083865;28;20286;-63
2023/04/21 06:44:13;;;;;;;9.57;7.63;;;18.20;67.50;;;;;;5093553;28;20266;-63
2023/04/21 06:47:02;;;;;;;11.65;8.48;;;18.30;68.10;;;;;;5092385;28;20731;-64
2023/04/21 06:49:50;;;;;;;10.82;7.57;;;18.40;67.90;;;;;;5092870;28;20196;-63
2023/04/21 06:52:38;;;;;;;11.73;8.10;;;18.30;81.00;;;;;;5092493;28;20279;-63
2023/04/21 06:55:26;;;;;;;10.55;7.43;;;18.40;67.70;;;;;;5093345;28;20214;-63
2023/04/21 06:58:14;;;;;;;10.45;8.63;;;18.50;67.70;;;;;;5074776;28;20221;-63
2023/04/21 07:01:02;;;;;;;8.98;7.28;;;18.50;67.60;;;;;;5072640;28;20212;-63
2023/04/21 07:03:52;;;;;;;14.77;9.93;;;18.50;67.50;;;;;;5073113;28;20231;-63
2023/04/21 07:06:42;;;;;;;13.55;8.30;;;18.50;67.50;;;;;;5065604;28;20200;-62
2023/04/21 07:09:32;;;;;;;9.00;7.63;;;18.40;67.30;;;;;;5073081;28;20201;-63
2023/04/21 07:12:21;;;;;;;11.90;8.60;;;18.10;78.30;;;;;;5070912;28;20203;-63
2023/04/21 07:15:10;;;;;;;19.17;10.27;;;18.40;67.70;;;;;;5071798;28;20240;-63
2023/04/21 07:17:58;;;;;;;14.57;8.55;;;18.40;67.60;;;;;;5072580;28;20295;-63
2023/04/21 07:20:48;;;;;;;9.88;7.65;;;18.30;67.60;;;;;;5076380;28;20580;-63
2023/04/21 07:23:36;;;;;;;8.90;7.90;;;18.30;67.60;;;;;;5071527;28;20304;-63
2023/04/21 07:26:24;;;;;;;9.13;8.15;;;18.30;67.60;;;;;;5072512;28;20280;-63
2023/04/21 07:29:12;;;;;;;10.30;8.23;;;18.30;67.70;;;;;;5072546;28;20725;-63
2023/04/21 07:32:00;;;;;;;9.38;7.07;;;18.30;67.90;;;;;;5077091;28;20317;-62
2023/04/21 07:34:48;;;;;;;10.80;8.13;;;18.30;68.30;;;;;;5079794;28;20204;-63
2023/04/21 07:37:39;;;;;;;7.40;6.70;;;18.30;68.30;;;;;;5091287;28;20297;-65
2023/04/21 07:40:27;;;;;;;8.85;7.95;;;18.20;68.30;;;;;;5092039;28;20200;-63
2023/04/21 07:43:15;;;;;;;9.23;8.32;;;18.20;67.40;;;;;;5091470;28;20224;-64
2023/04/21 07:46:03;;;;;;;9.98;7.57;;;18.20;68.10;;;;;;5092124;28;20242;-64
2023/04/21 07:48:51;;;;;;;7.80;7.00;;;18.20;68.60;;;;;;5091989;28;20196;-62
2023/04/21 07:51:39;;;;;;;10.68;7.20;;;18.20;68.70;;;;;;5091227;28;20232;-63
2023/04/21 07:54:29;;;;;;;9.70;7.53;;;18.20;68.20;;;;;;5091045;28;20302;-64
2023/04/21 07:57:18;;;;;;;12.23;8.00;;;18.20;68.50;;;;;;5081275;28;20201;-63
2023/04/21 08:00:08;;;;;;;7.47;6.78;;;18.20;68.30;;;;;;5070785;28;20208;-62
2023/04/21 08:02:56;;;;;;;7.35;6.40;;;18.20;67.80;;;;;;5070448;28;20297;-63
2023/04/21 08:05:44;;;;;;;8.05;5.95;;;18.30;68.70;;;;;;5071780;28;20746;-63
2023/04/21 08:08:32;;;;;;;9.52;7.57;;;18.50;68.40;;;;;;5084989;28;20279;-63
2023/04/21 08:11:22;;;;;;;8.80;7.07;;;18.60;67.80;;;;;;5091470;28;20261;-63
2023/04/21 08:14:10;;;;;;;7.28;6.53;;;18.70;67.50;;;;;;5091388;28;20692;-63
2023/04/21 08:16:59;;;;;;;7.50;6.60;;;18.70;67.10;;;;;;5090217;28;20279;-63
2023/04/21 08:19:47;;;;;;;12.77;7.78;;;18.80;67.10;;;;;;5084125;28;20223;-62
2023/04/21 08:22:35;;;;;;;9.68;6.68;;;19.20;79.10;;;;;;5090036;28;20200;-63
2023/04/21 08:25:23;;;;;;;7.47;6.00;;;18.90;66.90;;;;;;5091043;28;20212;-63
2023/04/21 08:28:14;;;;;;;7.47;6.63;;;19.00;67.20;;;;;;5090648;28;20196;-63
2023/04/21 08:31:03;;;;;;;12.20;7.63;;;19.10;67.10;;;;;;5090211;28;20568;-63
2023/04/21 08:33:53;;;;;;;8.35;5.93;;;19.10;66.90;;;;;;5090181;28;20227;-63
2023/04/21 08:36:49;;;;;;;8.48;6.65;;;19.10;66.90;;;;;;5084945;28;20686;-63
2023/04/21 08:39:37;;;;;;;7.07;5.93;;;19.20;66.80;;;;;;5082094;28;20223;-63
2023/04/21 08:42:25;;;;;;;10.50;6.65;;;19.30;72.80;;;;;;5070678;28;20283;-63
2023/04/21 08:45:15;;;;;;;9.98;6.15;;;19.20;66.90;;;;;;5071017;28;20692;-63
2023/04/21 08:48:05;;;;;;;6.70;5.97;;;19.20;66.90;;;;;;5071619;28;20287;-63
2023/04/21 08:50:53;;;;;;;7.78;6.97;;;19.20;67.00;;;;;;5070489;28;20242;-63
2023/04/21 08:53:42;;;;;;;8.93;6.55;;;19.20;66.80;;;;;;5070140;28;20244;-64
2023/04/21 08:56:30;;;;;;;7.13;6.43;;;19.20;66.60;;;;;;5074850;28;20203;-63
2023/04/21 08:59:18;;;;;;;8.77;6.78;;;19.20;66.10;;;;;;5090913;28;20224;-63
2023/04/21 09:02:09;;;;;;;6.72;5.40;;;19.20;66.70;;;;;;5090075;28;20256;-62
2023/04/21 09:04:58;;;;;;;7.45;5.93;;;19.20;66.80;;;;;;5089136;28;20283;-63
2023/04/21 09:07:47;;;;;;;6.25;5.20;;;19.20;67.00;;;;;;5090303;28;20196;-62
2023/04/21 09:10:43;;;;;;;7.65;6.72;;;19.30;67.60;;;;;;5090444;28;20222;-62
2023/04/21 09:13:32;;;;;;;8.45;6.53;;;19.20;67.20;;;;;;5072476;28;20288;-63
2023/04/21 09:16:21;;;;;;;5.13;4.72;;;19.20;66.80;;;;;;5070387;28;20230;-63
2023/04/21 09:19:15;;;;;;;6.82;4.85;;;19.20;66.80;;;;;;5070249;28;20213;-62
2023/04/21 09:22:09;;;;;;;6.75;6.05;;;19.20;66.90;;;;;;5069788;28;20196;-63
2023/04/21 09:24:59;;;;;;;6.70;6.00;;;19.20;66.80;;;;;;5069763;28;20238;-63
2023/04/21 09:27:48;;;;;;;5.20;4.63;;;19.30;66.80;;;;;;5070247;28;20318;-63
2023/04/21 09:30:37;;;;;;;5.93;5.32;;;19.40;66.90;;;;;;5069577;28;20200;-62
2023/04/21 09:33:25;;;;;;;5.43;4.93;;;19.50;66.40;;;;;;5068791;28;20223;-63
2023/04/21 09:36:26;;;;;;;6.55;5.22;;;19.60;66.60;;;;;;5069896;28;20207;-63
2023/04/21 09:39:14;;;;;;;6.60;6.00;;;19.70;66.00;;;;;;5069944;28;20228;-63
2023/04/21 09:42:06;;;;;;;8.07;5.63;;;19.80;65.90;;;;;;5069320;28;20330;-63
2023/04/21 09:44:58;;;;;;;6.57;6.00;;;19.90;65.60;;;;;;5070576;28;20208;-63
2023/04/21 09:47:58;;;;;;;6.70;6.10;;;19.90;65.50;;;;;;5073207;28;20209;-63
2023/04/21 09:50:47;;;;;;;6.10;5.50;;;19.90;65.20;;;;;;5088726;28;20619;-64
2023/04/21 09:53:41;;;;;;;12.27;5.85;;;20.00;64.80;;;;;;5093650;28;20296;-62
2023/04/21 09:56:32;;;;;;;9.63;6.78;;;20.00;65.10;;;;;;5090217;28;20201;-63
2023/04/21 09:59:26;;;;;;;6.68;5.78;;;20.10;64.70;;;;;;5074072;28;20225;-63
2023/04/21 10:02:20;;;;;;;7.10;5.25;;;20.10;64.50;;;;;;5075394;28;20201;-63
2023/04/21 10:05:11;;;;;;;5.72;5.00;;;20.20;64.60;;;;;;5078200;22;20287;-62
2023/04/21 10:07:59;;;;;;;6.03;5.40;;;20.20;65.20;;;;;;5064020;28;20200;-62
2023/04/21 10:10:49;;;;;;;7.82;5.80;;;20.20;64.70;;;;;;5073818;28;20265;-62
2023/04/21 10:13:38;;;;;;;6.57;5.53;;;20.20;63.80;;;;;;5052345;28;20286;-63
2023/04/21 10:16:26;;;;;;;5.10;4.60;;;20.20;64.70;;;;;;5053627;28;20285;-62
2023/04/21 10:19:24;;;;;;;8.07;4.88;;;20.20;64.90;;;;;;5053555;28;20225;-63
2023/04/21 10:22:12;;;;;;;6.15;5.00;;;20.30;65.00;;;;;;5055725;28;20198;-62
2023/04/21 10:25:01;;;;;;;6.95;6.10;;;20.20;64.20;;;;;;5073085;28;20761;-62
2023/04/21 10:27:51;;;;;;;7.82;5.97;;;20.20;65.20;;;;;;5073900;28;20290;-62
2023/04/21 10:30:39;;;;;;;8.00;6.32;;;20.20;64.90;;;;;;5073965;28;20681;-63
2023/04/21 10:33:27;;;;;;;5.22;4.82;;;20.10;64.40;;;;;;5073448;28;20298;-62
2023/04/21 10:36:25;;;;;;;6.25;5.30;;;20.10;65.20;;;;;;5074453;28;20226;-62
2023/04/21 10:39:25;;;;;;;5.97;5.07;;;20.10;65.70;;;;;;5072802;28;20223;-62
2023/04/21 10:42:35;;;;;;;5.43;4.93;;;20.10;65.40;;;;;;5073875;28;20232;-62
2023/04/21 10:45:26;;;;;;;5.43;4.93;;;20.00;64.50;;;;;;5072895;28;20213;-63
2023/04/21 10:48:14;;;;;;;4.97;4.53;;;20.00;65.80;;;;;;5073410;28;20557;-64
2023/04/21 10:51:04;;;;;;;6.25;5.53;;;20.10;66.00;;;;;;5073118;28;20197;-63
2023/04/21 10:53:52;;;;;;;5.63;4.72;;;20.10;65.10;;;;;;5072612;28;20401;-63
2023/04/21 10:56:40;;;;;;;5.20;4.72;;;20.10;66.00;;;;;;5068823;28;20202;-63
2023/04/21 10:59:28;;;;;;;5.43;4.97;;;20.20;65.70;;;;;;5053445;28;20330;-63
2023/04/21 11:02:19;;;;;;;6.13;5.53;;;20.20;65.50;;;;;;5052943;28;20279;-63
2023/04/21 11:05:09;;;;;;;7.22;5.15;;;20.30;65.10;;;;;;5059058;28;20225;-64
2023/04/21 11:08:05;;;;;;;6.10;5.50;;;20.40;65.50;;;;;;5073036;28;20584;-63
2023/04/21 11:10:55;;;;;;;6.10;5.45;;;20.40;65.50;;;;;;5073523;28;20188;-64
2023/04/21 11:13:43;;;;;;;5.70;4.97;;;20.50;64.30;;;;;;5073095;28;20220;-64
2023/04/21 11:16:31;;;;;;;6.30;5.63;;;20.50;65.50;;;;;;5073018;28;20204;-63
2023/04/21 11:19:23;;;;;;;6.43;5.75;;;20.50;65.50;;;;;;5072679;28;20677;-63
2023/04/21 11:22:11;;;;;;;7.32;5.80;;;20.60;65.40;;;;;;5072834;28;20200;-63
2023/04/21 11:24:59;;;;;;;6.32;5.00;;;20.60;64.40;;;;;;5071388;28;20220;-63
2023/04/21 11:27:54;;;;;;;5.57;4.90;;;20.60;65.20;;;;;;5072856;28;20579;-63
2023/04/21 11:30:42;;;;;;;6.50;5.10;;;20.60;65.00;;;;;;5072884;28;20203;-63
2023/04/21 11:33:30;;;;;;;5.45;4.95;;;20.60;64.70;;;;;;5072780;28;20264;-64
2023/04/21 11:36:21;;;;;;;5.00;4.60;;;20.60;65.50;;;;;;5072646;28;20631;-63
2023/04/21 11:39:11;;;;;;;6.00;4.90;;;20.60;65.10;;;;;;5072572;28;20682;-63
2023/04/21 11:41:59;;;;;;;6.18;5.65;;;20.50;64.80;;;;;;5072300;28;20284;-63
2023/04/21 11:44:47;;;;;;;6.90;4.88;;;20.50;63.90;;;;;;5071719;28;20692;-63
2023/04/21 11:47:36;;;;;;;7.10;5.53;;;20.50;65.00;;;;;;5044822;28;20586;-63
2023/04/21 11:50:34;;;;;;;6.05;5.45;;;20.50;65.10;;;;;;5051496;28;20657;-63
2023/04/21 11:53:23;;;;;;;5.90;4.47;;;20.50;64.90;;;;;;5051810;28;20286;-63
2023/04/21 11:56:11;;;;;;;5.50;4.50;;;20.50;65.50;;;;;;5050723;28;20688;-63
2023/04/21 11:58:59;;;;;;;5.35;4.95;;;20.50;65.30;;;;;;5032464;28;20281;-63
2023/04/21 12:01:49;;;;;;;10.02;5.88;;;20.50;66.40;;;;;;5032084;28;20222;-64
2023/04/21 12:04:38;;;;;;;6.85;5.70;;;20.50;65.30;;;;;;5031740;28;20238;-63
2023/04/21 12:07:27;;;;;;;6.40;5.03;;;20.50;65.60;;;;;;5032363;28;20247;-63
2023/04/21 12:10:18;;;;;;;5.82;5.32;;;20.50;65.20;;;;;;5031574;28;20671;-63
2023/04/21 12:13:06;;;;;;;5.20;4.80;;;20.60;71.10;;;;;;5031950;28;20325;-63
2023/04/21 12:15:54;;;;;;;7.18;6.05;;;20.60;65.40;;;;;;5031693;28;20206;-63
2023/04/21 12:18:43;;;;;;;5.38;4.68;;;20.60;64.50;;;;;;5031817;28;20202;-63
2023/04/21 12:21:31;;;;;;;5.85;5.07;;;20.70;65.00;;;;;;5032045;28;20275;-63
2023/04/21 12:24:19;;;;;;;5.97;5.43;;;20.70;64.30;;;;;;5031616;28;20595;-63
2023/04/21 12:27:08;;;;;;;5.35;4.85;;;20.80;65.00;;;;;;5031980;28;20316;-63
2023/04/21 12:29:56;;;;;;;5.13;4.70;;;20.80;64.90;;;;;;5040536;28;20678;-63
2023/04/21 12:32:46;;;;;;;6.20;5.40;;;20.90;65.40;;;;;;5050505;28;20232;-63
2023/04/21 12:35:34;;;;;;;4.75;4.35;;;20.80;64.60;;;;;;5059323;28;20200;-63
2023/04/21 12:38:22;;;;;;;5.22;4.72;;;20.90;65.50;;;;;;5071260;28;20208;-63
2023/04/21 12:41:10;;;;;;;5.00;4.15;;;20.80;65.30;;;;;;5070036;28;20307;-63
2023/04/21 12:44:00;;;;;;;6.88;5.18;;;20.80;65.10;;;;;;5071351;28;20350;-63
2023/04/21 12:46:48;;;;;;;5.10;4.20;;;20.80;65.20;;;;;;5070987;28;20226;-63
2023/04/21 12:49:36;;;;;;;5.45;4.88;;;20.80;65.60;;;;;;5071141;28;20279;-63
2023/04/21 12:52:25;;;;;;;5.68;5.13;;;20.90;65.50;;;;;;5070741;28;20254;-63
2023/04/21 12:55:13;;;;;;;5.30;4.85;;;20.80;65.20;;;;;;5069658;28;20243;-63
2023/04/21 12:58:01;;;;;;;5.65;4.43;;;20.80;65.80;;;;;;5062646;28;20220;-63
2023/04/21 13:00:51;;;;;;;5.78;5.18;;;20.70;65.80;;;;;;5071064;28;20216;-63
2023/04/21 13:03:39;;;;;;;5.07;4.57;;;20.80;65.50;;;;;;5070032;28;20231;-63
2023/04/21 13:06:27;;;;;;;5.10;4.60;;;20.80;66.10;;;;;;5049939;28;20667;-63
2023/04/21 13:09:16;;;;;;;5.28;4.85;;;20.80;65.90;;;;;;5051060;28;20287;-63
2023/04/21 13:12:04;;;;;;;7.18;5.28;;;20.80;66.00;;;;;;5050652;28;20661;-63
2023/04/21 13:14:52;;;;;;;5.90;4.82;;;20.90;65.30;;;;;;5051249;28;20710;-63
2023/04/21 13:17:42;;;;;;;5.35;4.85;;;20.90;65.80;;;;;;5050625;28;20212;-63
2023/04/21 13:20:30;;;;;;;5.07;4.57;;;21.00;65.60;;;;;;5050260;28;20213;-63
2023/04/21 13:23:18;;;;;;;5.45;4.95;;;21.20;77.30;;;;;;5049853;28;20201;-63
2023/04/21 13:26:06;;;;;;;5.63;5.10;;;21.10;65.40;;;;;;5051136;28;20201;-63
2023/04/21 13:28:54;;;;;;;5.68;4.72;;;21.20;65.80;;;;;;5049592;28;20247;-63
2023/04/21 13:31:43;;;;;;;4.50;4.10;;;21.20;65.40;;;;;;5050121;28;20232;-63
2023/04/21 13:34:33;;;;;;;4.53;4.13;;;21.90;65.30;;;;;;5049173;28;20221;-63
2023/04/21 13:37:21;;;;;;;5.30;4.90;;;21.30;65.30;;;;;;5050687;28;20201;-63
2023/04/21 13:40:11;;;;;;;4.93;4.53;;;21.30;65.20;;;;;;5051489;28;20208;-63
2023/04/21 13:42:59;;;;;;;5.00;4.53;;;21.30;65.10;;;;;;5051884;28;20282;-63
2023/04/21 13:45:50;;;;;;;5.07;4.57;;;21.30;64.60;;;;;;5050668;28;20208;-64
2023/04/21 13:48:39;;;;;;;7.95;4.57;;;21.30;65.20;;;;;;5052733;28;20554;-63
2023/04/21 13:51:29;;;;;;;6.47;4.38;;;21.30;65.30;;;;;;5052302;28;20204;-64
2023/04/21 13:54:17;;;;;;;5.00;4.47;;;21.30;64.80;;;;;;5051537;28;20217;-63
2023/04/21 13:57:05;;;;;;;5.07;4.57;;;21.30;65.30;;;;;;5058129;28;20234;-64
2023/04/21 13:59:53;;;;;;;5.80;5.20;;;21.30;65.50;;;;;;5067070;28;20285;-63
2023/04/21 14:02:42;;;;;;;5.00;4.60;;;21.30;65.40;;;;;;5050002;28;20213;-63
2023/04/21 14:05:30;;;;;;;5.03;4.20;;;21.20;64.80;;;;;;5050745;28;20193;-63
2023/04/21 14:08:20;;;;;;;5.00;4.60;;;21.20;65.40;;;;;;5051134;28;20424;-64
2023/04/21 14:11:08;;;;;;;5.40;4.90;;;21.40;65.40;;;;;;5050782;28;20248;-63
2023/04/21 14:13:57;;;;;;;5.57;5.03;;;21.50;64.70;;;;;;5063037;28;20598;-63
2023/04/21 14:16:56;;;;;;;7.15;5.18;;;21.40;65.20;;;;;;5050288;28;20204;-63
2023/04/21 14:19:44;;;;;;;5.10;4.60;;;21.40;65.20;;;;;;5049780;28;20204;-63
2023/04/21 14:22:33;;;;;;;5.50;5.00;;;21.30;65.40;;;;;;5049707;28;20253;-63
2023/04/21 14:25:22;;;;;;;4.50;4.18;;;21.20;64.70;;;;;;5050091;28;20217;-63
2023/04/21 14:28:11;;;;;;;5.28;4.78;;;21.20;65.40;;;;;;5063256;28;20203;-64
2023/04/21 14:30:59;;;;;;;5.07;4.57;;;21.20;65.50;;;;;;5067882;28;20201;-64
2023/04/21 14:33:47;;;;;;;4.72;4.25;;;21.30;65.00;;;;;;5072184;28;20225;-64
2023/04/21 14:36:36;;;;;;;4.45;4.13;;;21.30;65.50;;;;;;5065955;28;20665;-64
2023/04/21 14:39:24;;;;;;;4.75;4.35;;;21.30;65.40;;;;;;5073520;28;20200;-64
2023/04/21 14:42:13;;;;;;;5.28;4.78;;;21.40;65.40;;;;;;5072468;28;20223;-64